Time;durP1;ratioP1;P1;durP2;ratioP2;P2;SDS_P1;SDS_P2;PMS_P1;PMS_P2;Temp;Humidity;BMP_temperature;BMP_pressure;BME280_temperature;BME280_humidity;BME280_pressure;Samples;Min_cycle;Max_cycle;Signal;HPM_P1;HPM_P2
2020/12/24 00:00:34;;;;;;;0.83;0.83;;;13.10;3.50;;;;;;5049063;28;20280;-56
2020/12/24 00:03:00;;;;;;;1.00;0.90;;;13.10;3.40;;;;;;5044915;28;20221;-58
2020/12/24 00:05:25;;;;;;;1.10;0.97;;;13.20;1.00;;;;;;5046547;28;20178;-57
2020/12/24 00:07:51;;;;;;;1.00;0.90;;;13.20;1.00;;;;;;5049295;28;20529;-57
2020/12/24 00:10:17;;;;;;;0.80;0.80;;;13.10;1.00;;;;;;5055595;28;20273;-53
2020/12/24 00:12:42;;;;;;;0.90;0.90;;;13.10;1.00;;;;;;5045640;28;20197;-58
2020/12/24 00:15:09;;;;;;;1.03;0.93;;;13.10;1.00;;;;;;5049285;28;20197;-58
2020/12/24 00:17:35;;;;;;;1.10;1.00;;;13.10;1.00;;;;;;5048611;28;20192;-56
2020/12/24 00:20:02;;;;;;;1.30;1.00;;;13.10;1.00;;;;;;5046980;28;20444;-53
2020/12/24 00:22:28;;;;;;;1.27;1.17;;;13.10;1.00;;;;;;5045731;28;20807;-55
2020/12/24 00:24:54;;;;;;;1.03;0.93;;;13.10;1.00;;;;;;5048146;28;20448;-52
2020/12/24 00:27:19;;;;;;;1.30;1.20;;;13.00;1.00;;;;;;5049442;28;20524;-56
2020/12/24 00:29:45;;;;;;;1.30;1.10;;;13.10;1.00;;;;;;5027425;28;20213;-57
2020/12/24 00:32:10;;;;;;;1.33;1.23;;;13.10;1.00;;;;;;5049901;28;20201;-56
2020/12/24 00:34:36;;;;;;;1.03;1.03;;;13.00;1.00;;;;;;5048047;28;20551;-55
2020/12/24 00:37:02;;;;;;;1.20;1.10;;;13.00;1.00;;;;;;5047583;28;20191;-55
2020/12/24 00:39:27;;;;;;;1.10;0.90;;;13.00;1.00;;;;;;5049100;28;20225;-58
2020/12/24 00:41:53;;;;;;;1.10;1.00;;;13.00;1.00;;;;;;5041452;28;20261;-54
2020/12/24 00:44:20;;;;;;;1.40;1.30;;;12.90;1.00;;;;;;5048513;28;20234;-57
2020/12/24 00:46:46;;;;;;;4.10;1.07;;;12.90;1.00;;;;;;5048322;28;20213;-57
2020/12/24 00:49:11;;;;;;;2.50;0.90;;;12.90;1.00;;;;;;5043576;28;20496;-57
2020/12/24 00:51:37;;;;;;;1.13;1.03;;;12.80;1.00;;;;;;5035397;28;20232;-53
2020/12/24 00:54:03;;;;;;;1.20;1.10;;;12.80;1.00;;;;;;5048462;28;20201;-56
2020/12/24 00:56:29;;;;;;;1.10;1.10;;;12.80;1.00;;;;;;5047222;28;20268;-58
2020/12/24 00:58:54;;;;;;;1.23;1.13;;;12.80;1.00;;;;;;5050986;28;20570;-57
2020/12/24 01:01:20;;;;;;;1.37;1.27;;;12.80;1.00;;;;;;5051359;28;20294;-55
2020/12/24 01:03:46;;;;;;;1.63;1.30;;;12.80;1.00;;;;;;5052729;28;20217;-57
2020/12/24 01:06:11;;;;;;;4.03;1.50;;;12.80;1.00;;;;;;5051583;28;20191;-57
2020/12/24 01:08:37;;;;;;;1.33;1.23;;;12.80;1.00;;;;;;5057751;28;20190;-57
2020/12/24 01:11:02;;;;;;;1.20;1.20;;;12.70;1.00;;;;;;5052681;28;20209;-56
2020/12/24 01:13:28;;;;;;;1.40;1.30;;;12.70;1.00;;;;;;5051314;28;20247;-57
2020/12/24 01:15:54;;;;;;;1.10;1.10;;;12.70;1.00;;;;;;5046843;28;20186;-56
2020/12/24 01:18:19;;;;;;;2.73;1.57;;;12.60;1.00;;;;;;5049170;28;20201;-58
2020/12/24 01:20:45;;;;;;;1.20;1.10;;;12.60;1.00;;;;;;5050362;28;20669;-56
2020/12/24 01:23:11;;;;;;;1.40;1.30;;;12.60;1.00;;;;;;5039415;28;20260;-57
2020/12/24 01:25:37;;;;;;;2.30;2.10;;;12.60;1.00;;;;;;5050863;28;20440;-58
2020/12/24 01:28:02;;;;;;;2.97;2.10;;;12.50;1.00;;;;;;5044231;28;20182;-54
2020/12/24 01:30:28;;;;;;;1.93;1.60;;;12.40;1.00;;;;;;5050828;28;20182;-56
2020/12/24 01:32:54;;;;;;;1.40;1.30;;;12.40;1.00;;;;;;5051487;28;20190;-58
2020/12/24 01:35:23;;;;;;;1.17;1.17;;;12.40;1.00;;;;;;5036423;28;20192;-55
2020/12/24 01:37:48;;;;;;;1.67;1.50;;;12.40;1.00;;;;;;5052181;28;20182;-55
2020/12/24 01:40:15;;;;;;;1.33;1.23;;;12.40;1.00;;;;;;5051741;28;20436;-56
2020/12/24 01:42:40;;;;;;;1.40;1.30;;;12.50;1.00;;;;;;5052171;28;20217;-55
2020/12/24 01:45:07;;;;;;;1.53;1.30;;;12.40;1.00;;;;;;5050064;28;20464;-55
2020/12/24 01:47:33;;;;;;;1.17;1.17;;;12.40;1.00;;;;;;5055925;28;20184;-54
2020/12/24 01:49:58;;;;;;;1.30;1.20;;;12.30;1.00;;;;;;5053670;28;20472;-56
2020/12/24 01:52:30;;;;;;;1.30;1.20;;;12.30;1.00;;;;;;5051425;28;20447;-57
2020/12/24 01:54:57;;;;;;;1.37;1.27;;;12.30;1.00;;;;;;5050375;28;20281;-56
2020/12/24 01:57:23;;;;;;;1.20;1.10;;;12.30;1.00;;;;;;5050109;28;20432;-55
2020/12/24 01:59:48;;;;;;;1.07;1.00;;;12.30;1.00;;;;;;5051060;28;20423;-58
2020/12/24 02:02:14;;;;;;;1.40;1.30;;;12.40;1.00;;;;;;5044260;28;20923;-55
2020/12/24 02:04:40;;;;;;;1.00;1.00;;;12.40;1.00;;;;;;5038779;28;20664;-57
2020/12/24 02:07:05;;;;;;;2.03;1.20;;;12.30;1.00;;;;;;5049989;28;20239;-57
2020/12/24 02:09:31;;;;;;;1.30;1.20;;;12.30;1.00;;;;;;5059986;28;20231;-56
2020/12/24 02:11:58;;;;;;;1.37;1.27;;;12.40;1.00;;;;;;5044986;28;20243;-56
2020/12/24 02:14:24;;;;;;;2.27;1.30;;;12.40;1.00;;;;;;5051530;28;20174;-57
2020/12/24 02:16:50;;;;;;;1.47;1.37;;;12.40;1.00;;;;;;5050487;28;20886;-56
2020/12/24 02:19:16;;;;;;;1.80;1.33;;;12.40;1.00;;;;;;5039688;28;20193;-56
2020/12/24 02:21:41;;;;;;;1.33;1.17;;;12.30;1.00;;;;;;5050387;28;21035;-57
2020/12/24 02:24:08;;;;;;;2.00;1.17;;;12.40;1.00;;;;;;5049057;28;20470;-57
2020/12/24 02:26:34;;;;;;;1.43;1.33;;;12.40;1.00;;;;;;5050199;28;20257;-56
2020/12/24 02:28:59;;;;;;;1.30;1.20;;;12.30;1.00;;;;;;5050471;28;20436;-56
2020/12/24 02:31:25;;;;;;;1.50;1.40;;;12.20;1.00;;;;;;5050381;28;21294;-54
2020/12/24 02:33:51;;;;;;;1.33;1.23;;;12.20;1.00;;;;;;5049660;28;20221;-56
2020/12/24 02:36:16;;;;;;;1.50;1.40;;;12.20;1.00;;;;;;5050569;28;20211;-56
2020/12/24 02:38:42;;;;;;;1.30;1.20;;;12.10;1.00;;;;;;5049247;28;20208;-57
2020/12/24 02:41:08;;;;;;;1.47;1.27;;;12.20;1.00;;;;;;5051013;28;20686;-58
2020/12/24 02:43:33;;;;;;;1.43;1.33;;;12.20;1.00;;;;;;5050391;28;20210;-54
2020/12/24 02:45:59;;;;;;;1.30;1.20;;;12.30;1.00;;;;;;5051213;28;20185;-57
2020/12/24 02:48:24;;;;;;;1.60;1.50;;;12.20;1.00;;;;;;5044260;28;20181;-56
2020/12/24 02:50:50;;;;;;;2.03;1.50;;;12.20;1.00;;;;;;5048752;28;20182;-55
2020/12/24 02:53:16;;;;;;;1.20;1.10;;;12.20;1.00;;;;;;5049811;28;20181;-57
2020/12/24 02:55:41;;;;;;;1.27;1.17;;;12.10;1.00;;;;;;5039624;28;20235;-55
2020/12/24 02:58:07;;;;;;;1.40;1.30;;;12.10;1.00;;;;;;5050272;28;20265;-56
2020/12/24 03:00:33;;;;;;;1.37;1.27;;;12.10;1.00;;;;;;5050454;28;20185;-58
2020/12/24 03:02:58;;;;;;;1.30;1.20;;;12.00;1.00;;;;;;5049970;28;20213;-56
2020/12/24 03:05:24;;;;;;;1.87;1.77;;;11.90;1.00;;;;;;5050226;28;20647;-57
2020/12/24 03:07:51;;;;;;;1.63;1.40;;;11.90;1.00;;;;;;5051824;28;20234;-57
2020/12/24 03:10:17;;;;;;;1.03;1.00;;;12.00;1.00;;;;;;5050188;28;20420;-57
2020/12/24 03:12:43;;;;;;;1.50;1.40;;;12.10;1.00;;;;;;5049484;28;20436;-56
2020/12/24 03:15:09;;;;;;;1.13;1.10;;;12.10;1.00;;;;;;5046035;28;20439;-55
2020/12/24 03:17:35;;;;;;;1.73;1.63;;;12.10;1.00;;;;;;5044005;28;20291;-55
2020/12/24 03:20:00;;;;;;;1.40;1.30;;;12.20;1.00;;;;;;5048586;28;20992;-58
2020/12/24 03:22:26;;;;;;;1.37;1.27;;;12.20;1.00;;;;;;5037390;28;20194;-55
2020/12/24 03:24:52;;;;;;;1.40;1.30;;;12.20;1.00;;;;;;5046805;28;20182;-57
2020/12/24 03:27:17;;;;;;;1.27;1.20;;;12.10;1.00;;;;;;5032237;28;20717;-57
2020/12/24 03:29:43;;;;;;;1.40;1.30;;;12.00;1.00;;;;;;5043110;28;20186;-57
2020/12/24 03:32:08;;;;;;;1.17;1.10;;;11.90;1.00;;;;;;5044112;28;20185;-54
2020/12/24 03:34:34;;;;;;;1.30;1.20;;;11.90;1.00;;;;;;5049449;28;20538;-57
2020/12/24 03:37:00;;;;;;;1.53;1.40;;;11.90;1.00;;;;;;5050257;28;20283;-56
2020/12/24 03:39:25;;;;;;;1.53;1.30;;;11.90;1.00;;;;;;5048911;28;20166;-54
2020/12/24 03:41:51;;;;;;;2.17;1.40;;;11.90;1.00;;;;;;5049570;28;20228;-58
2020/12/24 03:44:16;;;;;;;1.40;1.30;;;11.90;1.00;;;;;;5038012;28;20230;-58
2020/12/24 03:46:42;;;;;;;1.53;1.43;;;11.80;1.00;;;;;;5048754;28;20182;-55
2020/12/24 03:49:08;;;;;;;1.70;1.40;;;11.90;1.00;;;;;;5053180;28;20182;-59
2020/12/24 03:51:33;;;;;;;2.73;1.30;;;11.90;1.00;;;;;;5044995;28;20179;-57
2020/12/24 03:53:59;;;;;;;1.40;1.30;;;11.90;1.00;;;;;;5044581;28;20732;-58
2020/12/24 03:56:24;;;;;;;1.50;1.40;;;11.90;1.00;;;;;;5049327;28;20264;-58
2020/12/24 03:58:50;;;;;;;3.20;1.50;;;11.90;1.00;;;;;;5047368;28;20554;-56
2020/12/24 04:01:16;;;;;;;1.13;1.03;;;11.80;1.00;;;;;;5048872;28;20236;-56
2020/12/24 04:03:41;;;;;;;1.30;1.20;;;11.80;1.00;;;;;;5048454;28;20542;-57
2020/12/24 04:06:07;;;;;;;1.43;1.33;;;11.70;7.70;;;;;;5047063;28;20247;-56
2020/12/24 04:08:33;;;;;;;1.20;1.13;;;11.60;5.80;;;;;;5053061;28;20186;-56
2020/12/24 04:10:58;;;;;;;2.43;1.50;;;11.60;2.80;;;;;;5041665;28;20197;-57
2020/12/24 04:13:24;;;;;;;1.40;1.30;;;11.60;8.80;;;;;;5049266;28;20424;-56
2020/12/24 04:15:49;;;;;;;1.50;1.40;;;11.60;13.00;;;;;;5048750;28;20186;-57
2020/12/24 04:18:15;;;;;;;1.87;1.67;;;11.70;1.00;;;;;;5046579;28;20204;-56
2020/12/24 04:20:41;;;;;;;1.60;1.50;;;11.70;2.70;;;;;;5048394;28;20193;-56
2020/12/24 04:23:06;;;;;;;2.17;1.70;;;11.70;1.00;;;;;;5048484;28;20805;-55
2020/12/24 04:25:32;;;;;;;1.70;1.60;;;11.70;1.00;;;;;;5047275;28;20186;-54
2020/12/24 04:27:57;;;;;;;1.63;1.50;;;11.70;1.00;;;;;;5049543;28;20231;-55
2020/12/24 04:30:23;;;;;;;2.23;1.40;;;11.70;1.00;;;;;;5048203;28;20182;-58
2020/12/24 04:32:49;;;;;;;6.63;1.57;;;11.80;1.00;;;;;;5047955;28;20181;-56
2020/12/24 04:35:14;;;;;;;1.70;1.60;;;11.80;1.00;;;;;;5045337;28;20193;-62
2020/12/24 04:37:40;;;;;;;1.73;1.27;;;11.90;1.00;;;;;;5048952;28;20221;-57
2020/12/24 04:40:06;;;;;;;2.63;1.53;;;11.90;1.00;;;;;;5047465;28;20197;-54
2020/12/24 04:42:32;;;;;;;1.90;1.43;;;11.90;1.00;;;;;;5048910;28;20217;-52
2020/12/24 04:44:59;;;;;;;1.80;1.33;;;12.00;1.00;;;;;;5046964;28;20221;-57
2020/12/24 04:47:25;;;;;;;1.33;1.23;;;11.90;1.00;;;;;;5047560;28;20795;-54
2020/12/24 04:49:52;;;;;;;1.30;1.20;;;12.10;1.00;;;;;;5048371;28;20424;-55
2020/12/24 04:52:18;;;;;;;1.30;1.20;;;12.20;1.00;;;;;;5046921;28;20439;-57
2020/12/24 04:54:46;;;;;;;1.70;1.40;;;12.20;1.00;;;;;;5046889;28;20894;-59
2020/12/24 04:57:12;;;;;;;1.30;1.20;;;12.30;1.00;;;;;;5044650;28;20181;-55
2020/12/24 04:59:38;;;;;;;1.57;1.47;;;12.30;1.00;;;;;;5049119;28;20544;-54
2020/12/24 05:02:04;;;;;;;1.30;1.17;;;12.30;1.00;;;;;;5047866;28;20451;-57
2020/12/24 05:04:31;;;;;;;1.40;1.30;;;12.40;1.00;;;;;;5042157;28;20429;-56
2020/12/24 05:07:04;;;;;;;1.60;1.30;;;12.40;1.00;;;;;;5047599;28;20447;-57
2020/12/24 05:09:30;;;;;;;1.00;1.00;;;12.30;1.00;;;;;;5033106;28;20524;-57
2020/12/24 05:11:56;;;;;;;1.77;1.20;;;12.30;1.00;;;;;;5044137;28;20535;-56
2020/12/24 05:14:26;;;;;;;0.90;0.90;;;12.40;1.00;;;;;;5042896;28;20205;-57
2020/12/24 05:17:02;;;;;;;1.77;1.00;;;12.30;1.00;;;;;;5048057;28;20162;-56
2020/12/24 05:19:29;;;;;;;1.57;1.30;;;12.30;1.00;;;;;;5046622;28;20467;-57
2020/12/24 05:21:55;;;;;;;1.37;1.27;;;12.30;1.00;;;;;;5032154;28;20444;-56
2020/12/24 05:24:25;;;;;;;1.10;1.10;;;12.30;1.00;;;;;;5046705;28;20468;-55
2020/12/24 05:26:53;;;;;;;1.50;1.10;;;12.30;1.00;;;;;;5047634;28;20867;-56
2020/12/24 05:29:20;;;;;;;1.30;1.20;;;12.30;1.00;;;;;;5048231;28;20440;-58
2020/12/24 05:31:51;;;;;;;1.37;1.10;;;12.20;1.00;;;;;;5037691;28;20435;-56
2020/12/24 05:34:20;;;;;;;1.30;1.20;;;12.20;1.00;;;;;;5040818;28;20934;-57
2020/12/24 05:36:46;;;;;;;1.30;1.20;;;12.10;1.00;;;;;;5048048;28;20450;-54
2020/12/24 05:39:12;;;;;;;1.43;1.20;;;12.10;1.00;;;;;;5047950;28;20490;-57
2020/12/24 05:41:39;;;;;;;1.40;1.30;;;12.10;1.00;;;;;;5048499;28;20895;-56
2020/12/24 05:44:12;;;;;;;1.40;1.30;;;12.10;1.00;;;;;;5039579;28;20315;-54
2020/12/24 05:46:56;;;;;;;4.07;1.60;;;12.10;1.00;;;;;;5041204;28;20430;-57
2020/12/24 05:49:23;;;;;;;1.50;1.40;;;12.10;1.00;;;;;;5043178;28;20459;-55
2020/12/24 05:51:53;;;;;;;2.37;1.37;;;12.20;99.90;;;;;;5040066;28;20546;-57
2020/12/24 05:54:20;;;;;;;2.90;1.60;;;12.20;1.00;;;;;;5041483;28;20440;-51
2020/12/24 05:56:46;;;;;;;2.20;1.23;;;12.10;99.90;;;;;;5041322;28;20440;-55
2020/12/24 05:59:19;;;;;;;1.93;1.10;;;11.90;1.00;;;;;;5042501;28;20448;-54
2020/12/24 06:01:59;;;;;;;2.20;1.50;;;11.40;99.90;;;;;;5042348;28;20428;-56
2020/12/24 06:04:44;;;;;;;1.23;1.23;;;11.00;1.00;;;;;;5041248;28;20467;-57
2020/12/24 06:07:19;;;;;;;1.90;1.50;;;10.60;1.00;;;;;;5022772;28;20490;-56
2020/12/24 06:09:47;;;;;;;1.47;1.37;;;10.30;1.00;;;;;;5041470;28;20510;-55
2020/12/24 06:12:22;;;;;;;1.50;1.40;;;10.10;1.00;;;;;;5041741;28;20420;-52
2020/12/24 06:14:56;;;;;;;1.47;1.37;;;10.00;1.00;;;;;;5029614;28;20506;-57
2020/12/24 06:17:24;;;;;;;1.20;1.20;;;9.90;1.00;;;;;;5040270;28;20429;-58
2020/12/24 06:19:50;;;;;;;1.93;1.20;;;9.70;1.00;;;;;;5040867;28;20430;-53
2020/12/24 06:22:17;;;;;;;1.37;1.27;;;9.60;9.00;;;;;;5040386;28;20492;-55
2020/12/24 06:24:54;;;;;;;2.67;1.60;;;9.60;4.40;;;;;;5040714;28;20435;-53
2020/12/24 06:27:37;;;;;;;1.70;1.40;;;9.60;8.20;;;;;;5028522;28;20471;-55
2020/12/24 06:30:04;;;;;;;1.37;1.27;;;9.60;4.00;;;;;;5041970;28;20802;-49
2020/12/24 06:32:34;;;;;;;2.07;1.20;;;9.60;1.00;;;;;;5038160;28;20836;-53
2020/12/24 06:35:00;;;;;;;0.90;0.90;;;9.50;1.80;;;;;;5040087;28;20438;-51
2020/12/24 06:37:26;;;;;;;2.13;1.20;;;9.30;1.00;;;;;;5044021;28;20489;-52
2020/12/24 06:39:52;;;;;;;1.33;1.20;;;9.20;1.00;;;;;;5049099;28;20446;-54
2020/12/24 06:42:38;;;;;;;1.53;1.10;;;9.20;1.00;;;;;;5049839;28;20189;-49
2020/12/24 06:45:08;;;;;;;2.33;1.20;;;9.10;1.00;;;;;;5046968;28;20478;-55
2020/12/24 06:47:35;;;;;;;1.30;1.20;;;9.00;1.00;;;;;;5045602;28;20419;-57
2020/12/24 06:50:00;;;;;;;1.10;1.00;;;9.00;1.00;;;;;;5049158;28;20439;-54
2020/12/24 06:52:31;;;;;;;1.50;0.90;;;8.90;1.00;;;;;;5049089;28;20750;-54
2020/12/24 06:55:15;;;;;;;1.33;1.10;;;9.00;1.00;;;;;;5048660;28;20748;-57
2020/12/24 06:57:44;;;;;;;0.97;0.97;;;9.00;1.00;;;;;;5049745;28;20407;-53
2020/12/24 07:00:21;;;;;;;2.27;1.47;;;9.00;1.00;;;;;;5048723;28;20475;-54
2020/12/24 07:02:49;;;;;;;1.40;1.20;;;9.10;1.00;;;;;;5049030;28;20459;-54
2020/12/24 07:05:53;;;;;;;1.37;1.27;;;9.10;1.00;;;;;;5049209;28;20435;-53
2020/12/24 07:08:33;;;;;;;1.43;1.23;;;9.10;1.00;;;;;;5029297;28;20931;-57
2020/12/24 07:11:01;;;;;;;1.83;1.00;;;9.10;1.00;;;;;;5025563;28;20446;-55
2020/12/24 07:13:51;;;;;;;1.20;1.10;;;9.10;1.00;;;;;;5026558;28;20525;-55
2020/12/24 07:16:16;;;;;;;1.43;1.20;;;9.10;1.00;;;;;;5025628;28;20447;-56
2020/12/24 07:18:42;;;;;;;1.53;1.43;;;9.10;1.00;;;;;;5005756;28;20460;-50
2020/12/24 07:21:10;;;;;;;1.70;1.30;;;9.10;1.00;;;;;;5026677;28;20178;-55
2020/12/24 07:23:44;;;;;;;2.57;1.50;;;9.00;1.00;;;;;;5026085;28;20240;-57
2020/12/24 07:26:11;;;;;;;1.40;1.30;;;9.00;1.00;;;;;;5024534;28;20439;-54
2020/12/24 07:28:39;;;;;;;2.20;1.77;;;9.00;1.00;;;;;;5024609;28;20443;-55
2020/12/24 07:31:07;;;;;;;1.50;1.30;;;9.00;1.00;;;;;;5025870;28;20524;-54
2020/12/24 07:33:33;;;;;;;1.50;1.40;;;9.00;1.00;;;;;;5019778;28;20454;-55
2020/12/24 07:35:59;;;;;;;1.20;1.10;;;9.10;1.00;;;;;;5026643;28;20428;-55
2020/12/24 07:38:30;;;;;;;1.53;1.30;;;9.00;1.00;;;;;;5029704;28;20490;-56
2020/12/24 07:40:56;;;;;;;1.30;1.07;;;9.00;1.00;;;;;;5034046;28;20447;-55
2020/12/24 07:43:24;;;;;;;4.63;1.50;;;9.00;1.00;;;;;;5029665;28;20551;-53
2020/12/24 07:45:50;;;;;;;1.97;1.13;;;9.00;1.00;;;;;;5031815;28;20428;-54
2020/12/24 07:48:21;;;;;;;2.60;1.20;;;8.90;1.00;;;;;;5024911;28;20828;-55
2020/12/24 07:50:48;;;;;;;2.30;1.23;;;8.90;1.00;;;;;;5049143;28;21104;-53
2020/12/24 07:53:28;;;;;;;2.43;1.20;;;8.80;1.00;;;;;;5045564;28;20435;-55
2020/12/24 07:56:05;;;;;;;2.17;1.20;;;8.80;1.00;;;;;;5048805;28;20953;-54
2020/12/24 07:58:31;;;;;;;1.20;1.10;;;8.70;1.00;;;;;;5040583;28;20529;-53
2020/12/24 08:01:00;;;;;;;1.87;1.37;;;8.70;1.00;;;;;;5049109;28;20894;-56
2020/12/24 08:03:26;;;;;;;7.93;2.33;;;8.60;1.00;;;;;;5048547;28;20464;-56
2020/12/24 08:06:04;;;;;;;1.50;1.40;;;8.50;1.00;;;;;;5048547;28;20884;-53
2020/12/24 08:08:31;;;;;;;1.67;1.37;;;8.40;1.00;;;;;;5047332;28;20199;-54
2020/12/24 08:10:57;;;;;;;2.60;1.70;;;8.40;1.00;;;;;;5048430;28;20420;-52
2020/12/24 08:13:23;;;;;;;1.40;1.10;;;8.30;1.00;;;;;;5048050;28;20452;-50
2020/12/24 08:15:51;;;;;;;3.80;1.27;;;8.20;1.00;;;;;;5048890;28;20196;-56
2020/12/24 08:18:21;;;;;;;1.90;1.43;;;8.20;1.00;;;;;;5048076;28;20182;-53
2020/12/24 08:20:57;;;;;;;2.70;1.40;;;8.20;1.00;;;;;;5047314;28;21002;-53
2020/12/24 08:23:47;;;;;;;3.13;1.43;;;8.10;1.00;;;;;;5053510;28;20200;-55
2020/12/24 08:26:14;;;;;;;2.40;1.53;;;8.10;1.00;;;;;;5045035;28;20446;-54
2020/12/24 08:28:47;;;;;;;2.37;1.40;;;8.30;1.00;;;;;;5030033;28;20443;-52
2020/12/24 08:31:13;;;;;;;5.80;2.23;;;8.70;1.00;;;;;;5038748;28;20938;-52
2020/12/24 08:33:40;;;;;;;2.40;1.50;;;9.30;1.00;;;;;;5044614;28;20459;-56
2020/12/24 08:36:17;;;;;;;3.20;1.87;;;9.90;1.00;;;;;;5048995;28;20723;-51
2020/12/24 08:38:42;;;;;;;3.17;1.90;;;10.60;99.90;;;;;;5031961;28;20432;-51
2020/12/24 08:41:23;;;;;;;2.00;1.90;;;11.00;1.00;;;;;;5047509;28;20502;-48
2020/12/24 08:43:54;;;;;;;2.03;1.80;;;11.20;1.00;;;;;;5046397;28;20217;-46
2020/12/24 08:46:20;;;;;;;5.10;1.90;;;11.70;1.00;;;;;;5041169;28;20443;-50
2020/12/24 08:48:46;;;;;;;2.30;2.07;;;12.10;1.00;;;;;;5048999;28;20953;-47
2020/12/24 08:51:14;;;;;;;1.87;1.73;;;12.40;1.00;;;;;;5047000;28;20464;-47
2020/12/24 08:53:40;;;;;;;2.20;2.00;;;12.70;54.30;;;;;;5048428;28;20189;-55
2020/12/24 08:56:16;;;;;;;1.70;1.60;;;12.90;99.90;;;;;;5048734;28;21150;-53
2020/12/24 08:58:53;;;;;;;2.83;1.80;;;13.00;1.00;;;;;;5039239;28;20199;-50
2020/12/24 09:01:20;;;;;;;2.87;1.97;;;12.90;1.00;;;;;;5020567;28;20417;-50
2020/12/24 09:03:47;;;;;;;2.97;2.10;;;12.80;1.00;;;;;;5038830;28;20470;-49
2020/12/24 09:06:15;;;;;;;2.63;2.10;;;13.10;1.00;;;;;;5039249;28;20424;-53
2020/12/24 09:08:47;;;;;;;2.20;2.00;;;13.20;1.00;;;;;;5038874;28;20509;-53
2020/12/24 09:11:39;;;;;;;2.63;2.40;;;13.40;1.00;;;;;;5036380;28;20555;-49
2020/12/24 09:14:05;;;;;;;2.20;2.00;;;13.40;1.00;;;;;;5035787;28;21399;-51
2020/12/24 09:16:34;;;;;;;3.57;2.17;;;13.30;99.90;;;;;;5037692;28;20404;-54
2020/12/24 09:19:09;;;;;;;2.73;1.73;;;13.30;1.00;;;;;;5039048;28;20523;-49
2020/12/24 09:21:36;;;;;;;2.87;1.80;;;13.30;1.00;;;;;;5041903;28;22215;-50
2020/12/24 09:24:06;;;;;;;3.03;2.00;;;13.10;1.00;;;;;;5042764;28;20460;-52
2020/12/24 09:26:49;;;;;;;2.03;1.80;;;13.00;1.00;;;;;;5039895;28;20431;-55
2020/12/24 09:29:16;;;;;;;4.50;2.00;;;12.90;1.00;;;;;;5034241;28;20491;-52
2020/12/24 09:31:50;;;;;;;3.57;2.90;;;12.70;99.90;;;;;;5038759;28;20404;-49
2020/12/24 09:34:16;;;;;;;6.17;2.50;;;12.40;1.00;;;;;;5035629;28;20470;-46
2020/12/24 09:36:41;;;;;;;3.33;1.93;;;12.00;1.00;;;;;;5039656;28;20885;-48
2020/12/24 09:39:07;;;;;;;2.27;2.00;;;12.20;1.00;;;;;;5040763;28;20260;-52
2020/12/24 09:41:39;;;;;;;2.43;1.80;;;12.70;1.00;;;;;;5039553;28;20209;-51
2020/12/24 09:44:05;;;;;;;2.23;1.80;;;12.90;1.00;;;;;;5047681;28;20276;-52
2020/12/24 09:46:30;;;;;;;3.50;1.90;;;13.10;1.00;;;;;;5048736;28;20468;-53
2020/12/24 09:48:56;;;;;;;2.50;1.83;;;13.40;1.00;;;;;;5053359;28;20188;-53
2020/12/24 09:51:21;;;;;;;3.57;2.00;;;13.20;94.60;;;;;;5044936;28;20179;-51
2020/12/24 09:53:47;;;;;;;2.00;1.90;;;12.90;1.00;;;;;;5038206;28;20182;-55
2020/12/24 09:56:17;;;;;;;2.80;1.77;;;12.50;1.00;;;;;;5043426;28;20521;-52
2020/12/24 09:58:43;;;;;;;2.10;1.77;;;12.20;1.00;;;;;;5049405;28;20189;-52
2020/12/24 10:01:08;;;;;;;1.73;1.63;;;12.10;1.00;;;;;;5051156;28;20415;-46
2020/12/24 10:03:34;;;;;;;2.47;2.10;;;12.00;99.90;;;;;;5050708;28;20208;-52
2020/12/24 10:06:00;;;;;;;2.73;1.87;;;11.80;1.00;;;;;;5039374;28;20191;-48
2020/12/24 10:08:25;;;;;;;2.17;1.97;;;11.60;1.00;;;;;;5050929;28;20205;-51
2020/12/24 10:10:51;;;;;;;3.00;2.10;;;11.60;1.00;;;;;;5047684;28;20182;-52
2020/12/24 10:13:16;;;;;;;2.10;1.90;;;11.40;1.00;;;;;;5040905;28;20190;-50
2020/12/24 10:15:44;;;;;;;1.90;1.80;;;11.40;99.90;;;;;;5053370;28;20979;-53
2020/12/24 10:18:10;;;;;;;2.53;1.90;;;11.40;99.90;;;;;;5050050;28;20190;-48
2020/12/24 10:20:36;;;;;;;3.57;1.93;;;11.30;99.90;;;;;;5043675;28;20447;-51
2020/12/24 10:23:01;;;;;;;1.80;1.60;;;11.30;1.00;;;;;;5052503;28;20644;-49
2020/12/24 10:25:27;;;;;;;3.67;2.00;;;11.20;1.00;;;;;;5060089;28;20223;-51
2020/12/24 10:27:52;;;;;;;2.23;1.97;;;11.20;1.00;;;;;;5046220;28;20277;-50
2020/12/24 10:30:18;;;;;;;2.40;1.90;;;11.20;99.90;;;;;;5037644;28;20179;-53
2020/12/24 10:32:44;;;;;;;2.10;1.90;;;11.20;1.00;;;;;;5040559;28;20255;-49
2020/12/24 10:35:10;;;;;;;2.80;1.70;;;11.20;99.90;;;;;;5033363;28;20193;-52
2020/12/24 10:37:36;;;;;;;1.70;1.60;;;11.00;99.90;;;;;;5032610;28;20417;-48
2020/12/24 10:40:03;;;;;;;2.23;1.63;;;10.90;1.00;;;;;;5034483;28;20182;-47
2020/12/24 10:42:29;;;;;;;2.00;1.77;;;10.80;99.90;;;;;;5045350;28;20277;-51
2020/12/24 10:44:54;;;;;;;2.70;1.70;;;10.70;1.00;;;;;;5015068;28;20863;-50
2020/12/24 10:47:20;;;;;;;2.20;1.80;;;10.70;99.90;;;;;;5023320;28;20177;-46
2020/12/24 10:49:45;;;;;;;2.10;1.97;;;10.70;99.90;;;;;;5040512;28;20261;-45
2020/12/24 10:52:13;;;;;;;1.90;1.60;;;10.90;34.90;;;;;;5040363;28;20264;-49
2020/12/24 10:54:39;;;;;;;2.40;1.70;;;11.20;99.90;;;;;;5040438;28;20967;-50
2020/12/24 10:57:04;;;;;;;4.93;1.70;;;11.70;1.00;;;;;;5039470;28;20462;-51
2020/12/24 10:59:30;;;;;;;1.77;1.67;;;12.20;99.90;;;;;;5037526;28;20939;-48
2020/12/24 11:01:56;;;;;;;1.93;1.73;;;12.10;99.90;;;;;;5040718;28;20227;-49
2020/12/24 11:04:21;;;;;;;1.47;1.37;;;11.80;99.90;;;;;;5040106;28;20202;-48
2020/12/24 11:06:47;;;;;;;3.17;1.50;;;11.60;1.00;;;;;;5040313;28;20671;-49
2020/12/24 11:09:13;;;;;;;1.83;1.50;;;11.40;1.00;;;;;;5040516;28;20189;-50
2020/12/24 11:11:39;;;;;;;1.50;1.40;;;11.40;99.90;;;;;;5043606;28;20732;-49
2020/12/24 11:14:06;;;;;;;1.40;1.30;;;11.20;99.90;;;;;;5048977;28;20507;-49
2020/12/24 11:16:31;;;;;;;1.77;1.67;;;11.00;1.00;;;;;;5045175;28;20439;-46
2020/12/24 11:18:57;;;;;;;1.80;1.53;;;11.00;1.00;;;;;;5049143;28;20447;-48
2020/12/24 11:21:23;;;;;;;1.30;1.30;;;11.10;1.00;;;;;;5047665;28;20523;-48
2020/12/24 11:23:49;;;;;;;1.90;1.77;;;11.50;99.90;;;;;;5054443;28;20275;-51
2020/12/24 11:26:25;;;;;;;1.50;1.40;;;11.90;1.00;;;;;;5052135;28;20227;-46
2020/12/24 11:28:54;;;;;;;1.80;1.70;;;12.20;99.90;;;;;;5049157;28;20519;-49
2020/12/24 11:31:28;;;;;;;1.80;1.70;;;12.60;99.90;;;;;;5048671;28;20474;-47
2020/12/24 11:33:55;;;;;;;1.80;1.70;;;13.20;99.90;;;;;;5049206;28;20448;-48
2020/12/24 11:36:21;;;;;;;1.80;1.70;;;13.70;1.00;;;;;;5049509;28;20537;-49
2020/12/24 11:38:48;;;;;;;1.20;1.20;;;14.00;1.00;;;;;;5049911;28;20403;-46
2020/12/24 11:41:22;;;;;;;1.60;1.50;;;14.20;1.00;;;;;;5046325;28;20416;-50
2020/12/24 11:43:48;;;;;;;1.50;1.40;;;14.30;1.00;;;;;;5048999;28;20569;-44
2020/12/24 11:46:14;;;;;;;1.40;1.30;;;14.40;1.00;;;;;;5048904;28;20431;-48
2020/12/24 11:48:41;;;;;;;1.30;1.30;;;14.40;1.00;;;;;;5062790;28;20478;-45
2020/12/24 11:51:08;;;;;;;1.40;1.30;;;14.10;1.00;;;;;;5055701;28;20525;-51
2020/12/24 11:53:35;;;;;;;2.80;1.60;;;14.50;1.00;;;;;;5049656;28;20450;-48
2020/12/24 11:56:01;;;;;;;2.20;2.00;;;14.80;1.00;;;;;;5051830;28;20442;-49
2020/12/24 11:58:26;;;;;;;1.43;1.43;;;15.00;1.00;;;;;;5053175;28;20428;-49
2020/12/24 12:00:52;;;;;;;1.77;1.67;;;14.80;99.90;;;;;;5040178;28;20182;-48
2020/12/24 12:03:18;;;;;;;1.60;1.50;;;14.40;99.90;;;;;;5040135;28;20303;-50
2020/12/24 12:05:43;;;;;;;1.63;1.53;;;14.00;1.00;;;;;;5044043;28;20754;-48
2020/12/24 12:08:09;;;;;;;1.57;1.47;;;13.70;1.00;;;;;;5046862;28;20187;-53
2020/12/24 12:10:35;;;;;;;1.70;1.60;;;13.50;1.00;;;;;;5043227;28;20612;-50
2020/12/24 12:13:01;;;;;;;1.50;1.50;;;13.50;1.00;;;;;;5044475;28;21258;-49
2020/12/24 12:15:26;;;;;;;1.70;1.43;;;13.60;1.00;;;;;;5040521;28;20275;-49
2020/12/24 12:17:52;;;;;;;1.70;1.60;;;13.80;1.00;;;;;;5035877;28;21010;-51
2020/12/24 12:20:19;;;;;;;2.33;1.60;;;14.40;1.00;;;;;;5038313;28;20177;-46
2020/12/24 12:22:46;;;;;;;1.33;1.30;;;14.20;1.00;;;;;;5037762;28;20699;-50
2020/12/24 12:25:11;;;;;;;1.80;1.70;;;13.80;1.00;;;;;;5032208;28;20435;-47
2020/12/24 12:27:37;;;;;;;1.80;1.50;;;13.60;1.00;;;;;;5040165;28;20433;-52
2020/12/24 12:30:03;;;;;;;1.50;1.40;;;13.50;1.00;;;;;;5037807;28;20550;-50
2020/12/24 12:32:29;;;;;;;1.63;1.63;;;13.40;1.00;;;;;;5044538;28;20440;-51
2020/12/24 12:34:55;;;;;;;1.50;1.40;;;13.00;1.00;;;;;;5047202;28;20831;-49
2020/12/24 12:37:20;;;;;;;3.83;1.90;;;13.10;1.00;;;;;;5036368;28;20187;-49
2020/12/24 12:39:46;;;;;;;1.63;1.53;;;13.30;1.00;;;;;;5033914;28;20587;-47
2020/12/24 12:42:11;;;;;;;1.60;1.50;;;13.20;1.00;;;;;;5048435;28;20174;-49
2020/12/24 12:44:37;;;;;;;1.47;1.40;;;13.00;1.00;;;;;;5029889;28;20287;-49
2020/12/24 12:47:03;;;;;;;1.70;1.70;;;13.40;1.00;;;;;;5048177;28;20180;-46
2020/12/24 12:49:28;;;;;;;1.50;1.40;;;13.60;1.00;;;;;;5047289;28;20186;-52
2020/12/24 12:51:54;;;;;;;1.93;1.77;;;13.50;1.00;;;;;;5047010;28;20179;-52
2020/12/24 12:54:19;;;;;;;1.70;1.60;;;13.10;1.00;;;;;;5040856;28;20719;-49
2020/12/24 12:56:45;;;;;;;1.90;1.80;;;12.90;99.90;;;;;;5048004;28;20192;-50
2020/12/24 12:59:11;;;;;;;1.80;1.70;;;12.60;1.00;;;;;;5046565;28;20599;-53